Nearby METAR Reports

Here are local weather reports from nearby weather stations and airports.

KHFD - Hartford/Brainar, Connecticut, USA
Distance from station: NE 5mi, 8km
Updated: Mon, 01/16/2017 6:53am EST
Clear
Clear
 Wind from calm
Wind: Calm
Temperature: 18°F , -8°C
Dew Point: 16°F , -9°C
Humidity: 93%
Barometer: 30.45 inHg , 1031.2 hPa
Clouds: Clear
Visibility: 7 miles , 11 km
2017/01/16 11:53 KHFD 161153Z 00000KT 7SM CLR M08/M09 A3045 RMK AO2 SLP311 I1000 I6001 T10831094 11061 21083 51002
KMMK - Meriden, Connecticut, USA
Distance from station: SSW 13mi, 21km
Updated: Mon, 01/16/2017 6:53am EST
Clear
Clear
 Wind from calm
Wind: Calm
Temperature: 18°F , -8°C
Dew Point: 12°F , -11°C
Humidity: 79%
Barometer: 30.45 inHg , 1031.2 hPa
Clouds: Clear
Visibility: 10 miles , 16 km
2017/01/16 11:53 KMMK 161153Z AUTO 00000KT 10SM CLR M08/M11 A3045 RMK AO2 SLP314 I1000 I6000 T10831111 11056 21089 53003 TSNO
 
KBDL - Windsor Locks, Connecticut, USA
Distance from station: N 17mi, 28km
Updated: Mon, 01/16/2017 6:51am EST
Clear
Clear
 Wind from calm
Wind: Calm
Temperature: 18°F , -8°C
Dew Point: 12°F , -11°C
Humidity: 79%
Barometer: 30.43 inHg , 1030.5 hPa
Clouds: Clear
Visibility: 10 miles , 16 km
2017/01/16 11:51 KBDL 161151Z 00000KT 10SM CLR M08/M11 A3043 RMK AO2 SLP309 I1000 I6000 T10831106 11056 21089 53002 $
KSNC - Chester, Connecticut, USA
Distance from station: SSE 24mi, 38km
Updated: Mon, 01/16/2017 7:35am EST
Clear
Clear
 Wind from calm
Wind: Calm
Temperature: 21°F , -6°C
Dew Point: 14°F , -10°C
Humidity: 74%
Barometer: 30.42 inHg , 1030.1 hPa
Clouds: Clear
Visibility: 10 miles , 16 km
2017/01/16 12:35 KSNC 161235Z AUTO 00000KT 10SM CLR M06/M10 A3042 RMK AO2
 
KOXC - Oxford/Waterbury, Connecticut, USA
Distance from station: SW 26mi, 42km
Updated: Mon, 01/16/2017 7:50am EST
Clear
Clear
 Wind from N
Wind: N 3 mph , 6 km/h
Temperature: 19°F , -7°C
Dew Point: 12°F , -11°C
Humidity: 73%
Barometer: 30.41 inHg , 1029.8 hPa
Clouds: Clear
Visibility: 10 miles , 16 km
2017/01/16 12:50 KOXC 161250Z 35003KT 10SM SKC M07/M11 A3041
KIJD - Willimantic, Connecticut, USA
Distance from station: E 28mi, 45km
Updated: Mon, 01/16/2017 6:52am EST
Clear
Clear
 Wind from calm
Wind: Calm
Temperature: 16°F , -9°C
Dew Point: 12°F , -11°C
Humidity: 86%
Barometer: 30.44 inHg , 1030.8 hPa
Clouds: Clear
Visibility: 10 miles , 16 km
2017/01/16 11:52 KIJD 161152Z AUTO 00000KT 10SM CLR M09/M11 A3044 RMK AO2 SLP312 I1000 I6000 T10891111 11067 21094 50001
 
KHVN - New Haven/Tweed, Connecticut, USA
Distance from station: SSW 30mi, 48km
Updated: Mon, 01/16/2017 6:53am EST
Clear
Clear
 Wind from calm
Wind: Calm
Temperature: 21°F , -6°C
Dew Point: 16°F , -9°C
Humidity: 80%
Barometer: 30.45 inHg , 1031.2 hPa
Clouds: Clear
Visibility: 10 miles , 16 km
2017/01/16 11:53 KHVN 161153Z 00000KT 10SM CLR M06/M09 A3045 RMK AO2 SLP309 T10611089 11044 21078 53002
KBAF - Westfield, Massachusetts, USA
Distance from station: 0 33mi, 54km
Updated: Mon, 01/16/2017 6:53am EST
Clear
Clear
 Wind from calm
Wind: Calm
Temperature: 12°F , -11°C
Dew Point: 10°F , -12°C
Humidity: 92%
Barometer: 30.43 inHg , 1030.5 hPa
Clouds: Clear
Visibility: 10 miles , 16 km
2017/01/16 11:53 KBAF 161153Z 00000KT 10SM CLR M11/M12 A3043 RMK AO2 SLP313 I1000 I6000 T11111122 11061 21111 53001
 
KCEF - Chicopee/Westove, Massachusetts, USA
Distance from station: NNE 37mi, 60km
Updated: Mon, 01/16/2017 6:58am EST
Clear
Clear
 Wind from calm
Wind: Calm
Temperature: 10°F , -12°C
Dew Point: 7°F , -14°C
Humidity: 85%
Barometer: 30.42 inHg , 1030.1 hPa
Clouds: Clear
Visibility: 10 miles , 16 km
2017/01/16 11:58 KCEF 161158Z AUTO 00000KT 10SM CLR M12/M14 A3042 RMK AO2 SLP312 T11171137 11096 21120 53002 $
KBDR - Bridgeport, Connecticut, USA
Distance from station: SSW 42mi, 67km
Updated: Mon, 01/16/2017 6:52am EST
Clear
Clear
 Wind from calm
Wind: Calm
Temperature: 25°F , -4°C
Dew Point: 16°F , -9°C
Humidity: 69%
Barometer: 30.45 inHg , 1031.2 hPa
Clouds: Clear
Visibility: 10 miles , 16 km
2017/01/16 11:52 KBDR 161152Z 00000KT 10SM CLR M04/M09 A3045 RMK AO2 SLP312 T10441089 11022 21056 53001
 
KGON - Groton/New Londo, Connecticut, USA
Distance from station: SE 42mi, 68km
Updated: Mon, 01/16/2017 6:56am EST
Clear
Clear
 Wind from N
Wind: N 5 mph , 7 km/h
Temperature: 21°F , -6°C
Wind Chill: 14°F , -10°C
Dew Point: 16°F , -9°C
Humidity: 80%
Barometer: 30.44 inHg , 1030.8 hPa
Clouds: Clear
Visibility: 10 miles , 16 km
2017/01/16 11:56 KGON 161156Z 36004KT 10SM CLR M06/M09 A3044 RMK AO2 SLP308 T10611094 11050 21078 53002
KDXR - Danbury, Connecticut, USA
Distance from station: WSW 45mi, 73km
Updated: Mon, 01/16/2017 6:53am EST
Clear
Clear
 Wind from calm
Wind: Calm
Temperature: 14°F , -10°C
Dew Point: 10°F , -12°C
Humidity: 85%
Barometer: 30.45 inHg , 1031.2 hPa
Clouds: Clear
Visibility: 10 miles , 16 km
2017/01/16 11:53 KDXR 161153Z 00000KT 10SM CLR M10/M12 A3045 RMK AO2 SLP316 I6000 T11001122 11078 21106 53005